Terminal Aerodrome Forecast
Issued by NWS Twin Cities, MN

Home | Current Version | Previous Version | Graphics & Text | Print | Product List | Glossary On
Versions: 1 2 3 4 5 6 7 8 9 10 11 12 13 14 15 16 17
000
FTUS43 KMPX 211128
TAFEAU
TAF
KEAU 211128Z 2112/2212 29017G29KT P6SM SCT030 BKN040
      TEMPO 2112/2116 BKN030
     FM211800 31020G29KT P6SM BKN035 OVC050
     FM212300 31014G20KT P6SM SKC
     FM220200 31009KT P6SM SKC=

USA.gov is the U.S. government's official web portal to all federal, state and local government web resources and services.